Atlanta, Idaho
Current Conditions -  °F | °C
As of 5:55 AM on Thursday 30 Oct 2014 (Local Time) from KSUN Reporting Station
Overcast Overcast  
Wind Chill: 40°   Ceiling: 9000
Heat Index: 43°   Visibility: 10mi
Dew Point: 27°   Wind: 5mph
Humidity: 53%   Direction: 320°NW
Pressure: 30.29"   Gusts: NA
Location:  43.8°N, 115.13°W
Report Text: KSUN 301155Z AUTO 32004KT 10SM OVC090 06/M03 A3029 RMK AO2
Loading
Personal Weather Stations






























Interactive Weather Map
Tropical Storm Tracking
New forecast layout! Learn more

10-Day Weather Forecast

Advertisements
Track Severe Weather on mobile